Impacts METAR Board INFO
IDs:

KCLT - Charlotte/Douglas In, NC, US

Updated at: 2207 UTC 24 Feb 2018
Potential Impact None Slight Moderate High
Time24/10Z 24/11Z 24/12Z 24/13Z 24/14Z 24/15Z 24/16Z 24/17Z 24/18Z 24/19Z 24/20Z 24/21Z 24/22Z
VIS7 7 6 1.5 0.75 3 10 10 10 10 10 10 10
CIG-- 7 3 2 2 4 10 120 -- 60 65 250 65
CoverSCTBKNOVCOVCOVCOVCBKNBKNSCTBKNBKNBKNBKN
FltCatVFRIFRLIFRLIFRLIFRLIFRMVFRVFRVFRVFRVFRVFRVFR
WX----BRBRBR----------------
WDir150160190200210210230210220220210200210
WSpd4 3 4 7 6 11 9 9 13 11 13 15 14
WGst-- -- -- -- -- -- -- -- 17 18 -- -- --
Raw hourly METARs
KCLT 240952Z 15004KT 7SM FEW150 SCT250 13/13 A3022 RMK AO2 SLP229 T01330128
KCLT 241052Z 16003KT 7SM BKN007 13/13 A3022 RMK AO2 SLP229 T01330133
KCLT 241152Z 19004KT 6SM BR OVC003 15/15 A3023 RMK AO2 SLP231 T01500150 10150 20133 51002
KCLT 241252Z 20007KT 1 1/2SM BR OVC002 16/16 A3022 RMK AO2 SFC VIS 2 SLP230 T01560156
KCLT 241352Z 21006KT 3/4SM R18C/6000VP6000FT BR OVC002 17/17 A3024 RMK AO2 SFC VIS 1 1/2 SLP235 T01670167
KCLT 241501Z 21011KT 3SM OVC004 18/17 A3022 RMK AO2 SFC VIS 7 T01780172
KCLT 241552Z 23009KT 210V270 10SM BKN010 BKN110 19/17 A3022 RMK AO2 SLP226 CIG 008V013 T01890167
KCLT 241652Z 21009KT 10SM SCT017 BKN120 22/17 A3020 RMK AO2 SLP221 T02170172
KCLT 241752Z 22013G17KT 10SM SCT026 SCT120 24/17 A3017 RMK AO2 SLP210 T02390172 10244 20150 58020
KCLT 241852Z 22011G18KT 10SM SCT032 BKN060 BKN110 24/16 A3012 RMK AO2 SLP193 T02440161
KCLT 241952Z 21013KT 10SM SCT042 BKN065 BKN110 25/16 A3009 RMK AO2 SLP181 T02500156
KCLT 242052Z 20015KT 10SM SCT047 SCT065 BKN250 26/15 A3006 RMK AO2 SLP173 T02560150 56034
KCLT 242152Z 21014KT 10SM FEW050 BKN065 BKN250 26/14 A3006 RMK AO2 SLP175 T02560144